This is the latest recevied weather packets stored in our database for station/object VE1AIC-4. If no packets are shown the sender has not sent any weather packets the latest 10 day(s).
| Time | Temp. | Humidity | Pressure | Rain* | Wind** | Luminosity | Snow |
|---|---|---|---|---|---|---|---|
| 1777875096 | 2.22° C | 96% | 983.9 hPa | 2.29 mm | - | 0 W/m² | - |
| 1777874454 | 2.22° C | 96% | 983.4 hPa | 2.03 mm | - | 0 W/m² | - |
| 1777872687 | 2.78° C | 96% | 982.6 hPa | 1.52 mm | - | 0 W/m² | - |
| 1777869720 | 2.78° C | 96% | 981.8 hPa | 1.78 mm | - | 0 W/m² | - |
| 1777865545 | 2.22° C | 96% | 981.6 hPa | 2.54 mm | - | 0 W/m² | - |
| 1777857652 | 2.78° C | 96% | 984.5 hPa | 4.57 mm | - | 0 W/m² | - |
| 1777855853 | 2.78° C | 96% | 984.6 hPa | 3.81 mm | - | 0 W/m² | - |
| 1777854631 | 3.33° C | 96% | 985.3 hPa | 3.05 mm | - | 0 W/m² | - |
| 1777851080 | 3.33° C | 96% | 986.7 hPa | 4.32 mm | - | 0 W/m² | - |
| 1777849284 | 2.78° C | 96% | 987.7 hPa | 3.3 mm | - | 1 W/m² | - |
| 1777840819 | 3.89° C | 93% | 995.5 hPa | 3.81 mm | - | 26 W/m² | - |
| 1777839640 | 3.89° C | 93% | 996.3 hPa | 2.79 mm | - | 21 W/m² | - |
| 1777837243 | 5.56° C | 89% | 997.2 hPa | 1.27 mm | - | 40 W/m² | - |
| 1777830620 | 6.11° C | 86% | 1001.4 hPa | 0.51 mm | - | 26 W/m² | - |
| 1777828883 | 7.22° C | 81% | 1002.7 hPa | 0.76 mm | - | 48 W/m² | - |
| 1777819274 | 7.78° C | 82% | 1007.8 hPa | 0 mm | - | 134 W/m² | - |
| 1777818646 | 7.78° C | 80% | 1008.1 hPa | 0 mm | - | 116 W/m² | - |
| 1777818065 | 7.78° C | 78% | 1008.5 hPa | 0 mm | - | 98 W/m² | - |
| 1777813291 | 9.44° C | 73% | 1007.6 hPa | 0 mm | - | 156 W/m² | - |
| 1777812056 | 9.44° C | 72% | 1008 hPa | 0 mm | - | 342 W/m² | - |
| 1777809634 | 8.33° C | 76% | 1008.7 hPa | 0 mm | - | 156 W/m² | - |
| 1777807834 | 7.78° C | 80% | 1009.5 hPa | 0 mm | - | 76 W/m² | - |
| 1777804256 | 7.78° C | 79% | 1009.7 hPa | 0 mm | - | 49 W/m² | - |
| 1777792367 | 5.56° C | 86% | 1011.4 hPa | 0 mm | - | 0 W/m² | - |
| 1777791103 | 5.56° C | 88% | 1011.5 hPa | 0 mm | - | 0 W/m² | - |
* Rain latest hour (hover to see other rain measurements)
** Current wind speed in m/s (hover to see current wind gust speed)